Time;durP1;ratioP1;P1;durP2;ratioP2;P2;SDS_P1;SDS_P2;PMS_P1;PMS_P2;Temp;Humidity;BMP_temperature;BMP_pressure;BME280_temperature;BME280_humidity;BME280_pressure;Samples;Min_cycle;Max_cycle;Signal;HPM_P1;HPM_P2
2022/11/10 00:00:54;;;;;;;2.90;2.30;;;12.00;99.90;12.00;100564.00;;;;4882155;28;87745;-63
2022/11/10 00:03:20;;;;;;;2.70;1.90;;;12.00;99.90;11.90;100558.00;;;;4879794;28;118101;-64
2022/11/10 00:05:45;;;;;;;3.40;1.80;;;11.90;99.90;11.90;100568.00;;;;4875845;28;105416;-63
2022/11/10 00:08:12;;;;;;;3.17;2.07;;;11.90;99.90;11.90;100563.00;;;;4877580;28;110585;-64
2022/11/10 00:10:57;;;;;;;5.27;2.50;;;12.00;99.90;11.90;100573.00;;;;4881149;28;87852;-64
2022/11/10 00:13:28;;;;;;;3.27;2.97;;;11.90;99.90;11.90;100571.00;;;;4881783;28;87808;-64
2022/11/10 00:18:39;;;;;;;2.57;1.70;;;11.80;99.90;11.80;100582.00;;;;4881402;28;87817;-66
2022/11/10 00:21:10;;;;;;;2.87;2.30;;;11.90;99.90;11.80;100579.00;;;;4876993;28;105225;-63
2022/11/10 00:23:35;;;;;;;4.20;2.10;;;11.80;99.90;11.80;100586.00;;;;4883533;28;88277;-63
2022/11/10 00:26:02;;;;;;;1.87;1.77;;;11.80;99.90;11.70;100587.00;;;;4878239;28;118067;-64
2022/11/10 00:28:30;;;;;;;2.23;1.83;;;11.80;99.90;11.70;100588.00;;;;4880590;28;88183;-64
2022/11/10 00:30:57;;;;;;;4.17;2.13;;;11.80;99.90;11.70;100609.00;;;;4879937;28;87914;-64
2022/11/10 00:33:23;;;;;;;2.17;1.90;;;11.80;99.90;11.70;100596.00;;;;4882883;28;88622;-63
2022/11/10 00:35:48;;;;;;;3.87;2.50;;;11.70;99.90;11.70;100606.00;;;;4878603;28;88073;-65
2022/11/10 00:38:14;;;;;;;5.47;2.63;;;11.70;99.90;11.70;100604.00;;;;4882371;28;108582;-65
2022/11/10 00:40:40;;;;;;;4.87;1.57;;;11.70;99.90;11.70;100603.00;;;;4879978;28;106559;-64
2022/11/10 00:43:05;;;;;;;2.60;1.90;;;11.70;99.90;11.60;100610.00;;;;4879967;28;118622;-64
2022/11/10 00:45:31;;;;;;;2.47;1.47;;;11.60;99.90;11.60;100604.00;;;;4877283;28;118729;-65
2022/11/10 00:47:56;;;;;;;5.20;1.27;;;11.60;99.90;11.60;100616.00;;;;4881919;28;109156;-64
2022/11/10 00:50:22;;;;;;;3.73;1.73;;;11.60;99.90;11.60;100614.00;;;;4878969;28;108229;-65
2022/11/10 00:52:48;;;;;;;1.80;1.57;;;11.60;99.90;11.50;100617.00;;;;4879330;28;117291;-64
2022/11/10 00:55:13;;;;;;;3.90;1.70;;;11.60;99.90;11.50;100615.00;;;;4878723;28;118278;-64
2022/11/10 00:57:39;;;;;;;1.00;1.00;;;11.50;99.90;11.50;100614.00;;;;4878288;28;102724;-64
2022/11/10 01:00:06;;;;;;;2.83;1.50;;;11.50;99.90;11.40;100615.00;;;;4874144;28;107247;-65
2022/11/10 01:02:31;;;;;;;2.10;1.03;;;11.50;99.90;11.40;100620.00;;;;4878121;28;107524;-64
2022/11/10 01:04:57;;;;;;;2.50;1.10;;;11.40;99.90;11.40;100626.00;;;;4877553;28;116112;-65
2022/11/10 01:07:23;;;;;;;1.87;1.00;;;11.40;99.90;11.30;100631.00;;;;4876217;28;87651;-64
2022/11/10 01:09:48;;;;;;;2.10;1.47;;;11.40;99.90;11.30;100628.00;;;;4874822;28;109600;-66
2022/11/10 01:12:14;;;;;;;2.43;1.13;;;11.40;99.90;11.30;100647.00;;;;4879001;28;114976;-64
2022/11/10 01:14:40;;;;;;;2.13;1.23;;;11.40;99.90;11.30;100647.00;;;;4879741;28;87793;-62
2022/11/10 01:17:05;;;;;;;1.43;0.90;;;11.30;99.90;11.20;100654.00;;;;4878053;28;109480;-65
2022/11/10 01:19:31;;;;;;;1.37;0.73;;;11.30;99.90;11.20;100646.00;;;;4876716;28;108286;-65
2022/11/10 01:21:59;;;;;;;2.10;0.97;;;11.30;99.90;11.20;100642.00;;;;4877251;28;117142;-65
2022/11/10 01:24:25;;;;;;;0.97;0.90;;;11.30;99.90;11.20;100649.00;;;;4878698;28;89341;-64
2022/11/10 01:26:51;;;;;;;1.80;0.90;;;11.20;99.90;11.20;100652.00;;;;4879905;28;110571;-64
2022/11/10 01:29:16;;;;;;;1.23;0.80;;;11.20;99.90;11.10;100656.00;;;;4875213;28;109146;-63
2022/11/10 01:31:43;;;;;;;1.57;0.70;;;11.60;99.90;11.10;100658.00;;;;4877711;28;117962;-64
2022/11/10 01:34:08;;;;;;;0.70;0.70;;;11.60;99.90;11.10;100658.00;;;;4878725;28;88927;-63
2022/11/10 01:36:34;;;;;;;1.13;0.80;;;11.20;99.90;11.10;100658.00;;;;4878930;28;87885;-64
2022/11/10 01:39:00;;;;;;;0.80;0.70;;;11.20;99.90;11.10;100664.00;;;;4876539;28;87814;-63
2022/11/10 01:41:26;;;;;;;0.93;0.70;;;11.10;99.90;11.10;100672.00;;;;4880357;28;101646;-64
2022/11/10 01:43:52;;;;;;;2.53;1.40;;;11.10;99.90;11.00;100666.00;;;;4881183;28;117663;-64
2022/11/10 01:46:17;;;;;;;0.97;0.87;;;11.10;99.90;11.00;100660.00;;;;4881619;28;87907;-64
2022/11/10 01:48:55;;;;;;;1.13;0.87;;;11.00;99.90;11.00;100668.00;;;;4876190;28;108883;-64
2022/11/10 01:51:29;;;;;;;1.50;0.47;;;11.00;99.90;10.90;100670.00;;;;4878343;28;110614;-64
2022/11/10 01:54:04;;;;;;;3.53;0.40;;;11.00;99.90;10.90;100666.00;;;;4879016;28;88875;-65
2022/11/10 01:56:49;;;;;;;1.13;0.60;;;10.90;99.90;10.90;100658.00;;;;4879887;28;87781;-64
2022/11/10 01:59:29;;;;;;;0.87;0.87;;;10.90;99.90;10.90;100659.00;;;;4877181;28;92942;-63
2022/11/10 02:02:04;;;;;;;0.87;0.60;;;10.90;99.90;10.90;100667.00;;;;4879244;28;88493;-63
2022/11/10 02:04:30;;;;;;;1.30;0.70;;;10.90;99.90;10.90;100667.00;;;;4877936;28;112592;-63
2022/11/10 02:06:56;;;;;;;0.73;0.73;;;10.90;99.90;10.90;100667.00;;;;4873149;28;87834;-64
2022/11/10 02:09:21;;;;;;;1.23;0.80;;;10.90;99.90;10.90;100679.00;;;;4881902;28;90360;-64
2022/11/10 02:11:53;;;;;;;0.90;0.67;;;10.90;99.90;10.90;100670.00;;;;4872632;28;117370;-64
2022/11/10 02:14:18;;;;;;;3.87;0.60;;;10.90;99.90;10.90;100674.00;;;;4876339;28;88211;-63
2022/11/10 02:16:44;;;;;;;0.77;0.67;;;10.90;99.90;10.80;100678.00;;;;4874814;28;104121;-64
2022/11/10 02:19:23;;;;;;;0.73;0.47;;;10.90;99.90;10.80;100693.00;;;;4878776;28;108657;-63
2022/11/10 02:21:49;;;;;;;0.63;0.63;;;10.80;99.90;10.80;100687.00;;;;4875136;28;112968;-64
2022/11/10 02:24:15;;;;;;;2.63;0.77;;;10.80;99.90;10.70;100691.00;;;;4877879;28;89007;-64
2022/11/10 02:26:53;;;;;;;1.47;0.73;;;10.80;99.90;10.70;100695.00;;;;4878191;28;87786;-64
2022/11/10 02:29:19;;;;;;;4.47;0.87;;;10.70;99.90;10.60;100697.00;;;;4881713;28;87817;-64
2022/11/10 02:31:45;;;;;;;1.87;0.80;;;10.70;99.90;10.60;100696.00;;;;4891372;28;89068;-65
2022/11/10 02:34:11;;;;;;;5.20;0.90;;;10.70;99.90;10.60;100705.00;;;;4879124;28;88336;-64
2022/11/10 02:36:36;;;;;;;0.67;0.60;;;10.70;99.90;10.60;100699.00;;;;4878107;28;87921;-64
2022/11/10 02:39:02;;;;;;;1.43;0.77;;;10.70;99.90;10.60;100712.00;;;;4878955;28;107132;-64
2022/11/10 02:41:28;;;;;;;4.73;0.70;;;10.60;99.90;10.50;100724.00;;;;4878460;28;87976;-64
2022/11/10 02:43:55;;;;;;;1.20;1.03;;;10.60;99.90;10.50;100726.00;;;;4878068;28;116133;-64
2022/11/10 02:46:21;;;;;;;1.60;0.80;;;10.50;99.90;10.50;100729.00;;;;4881272;28;110615;-65
2022/11/10 02:48:46;;;;;;;4.03;0.83;;;10.50;99.90;10.40;100721.00;;;;4881646;28;107463;-64
2022/11/10 02:51:12;;;;;;;1.40;0.80;;;10.50;99.90;10.40;100728.00;;;;4876341;28;117433;-64
2022/11/10 02:53:38;;;;;;;1.03;0.73;;;10.50;99.90;10.30;100728.00;;;;4878350;28;117149;-64
2022/11/10 02:56:05;;;;;;;1.20;1.00;;;10.40;99.90;10.30;100730.00;;;;4881726;28;87783;-64
2022/11/10 02:58:30;;;;;;;1.50;0.60;;;10.40;99.90;10.30;100738.00;;;;4882950;28;101966;-65
2022/11/10 03:00:56;;;;;;;1.53;1.20;;;10.40;99.90;10.20;100735.00;;;;4879964;28;103927;-65
2022/11/10 03:03:22;;;;;;;0.67;0.67;;;10.30;99.90;10.20;100741.00;;;;4877139;28;117016;-64
2022/11/10 03:05:47;;;;;;;4.37;0.83;;;10.30;99.90;10.20;100755.00;;;;4883058;28;111472;-63
2022/11/10 03:08:13;;;;;;;3.23;0.80;;;10.30;99.90;10.10;100750.00;;;;4883658;28;108815;-64
2022/11/10 03:10:39;;;;;;;0.70;0.70;;;10.20;99.90;10.10;100758.00;;;;4882713;28;91757;-64
2022/11/10 03:13:04;;;;;;;0.37;0.37;;;10.20;99.90;10.10;100756.00;;;;4881635;28;117295;-65
2022/11/10 03:15:30;;;;;;;1.27;0.90;;;10.20;99.90;10.10;100754.00;;;;4885734;28;109431;-64
2022/11/10 03:17:56;;;;;;;0.83;0.77;;;10.20;99.90;10.00;100764.00;;;;4884680;28;95652;-64
2022/11/10 03:20:22;;;;;;;2.50;1.00;;;10.10;99.90;10.00;100775.00;;;;4881058;28;88541;-65
2022/11/10 03:22:48;;;;;;;0.73;0.73;;;10.10;99.90;10.00;100785.00;;;;4880130;28;117412;-64
2022/11/10 03:25:14;;;;;;;1.17;0.60;;;10.00;99.90;9.90;100785.00;;;;4880799;28;109083;-64
2022/11/10 03:27:39;;;;;;;3.77;1.10;;;10.00;99.90;9.90;100778.00;;;;4882907;28;108718;-65
2022/11/10 03:30:06;;;;;;;1.10;1.00;;;10.00;99.90;9.90;100789.00;;;;4882822;28;87761;-64
2022/11/10 03:32:32;;;;;;;1.63;0.70;;;10.00;99.90;9.90;100786.00;;;;4878352;28;111492;-64
2022/11/10 03:34:58;;;;;;;2.57;0.70;;;9.90;99.90;9.90;100800.00;;;;4877801;28;104136;-65
2022/11/10 03:37:24;;;;;;;0.60;0.60;;;9.90;99.90;9.90;100800.00;;;;4878343;28;108853;-65
2022/11/10 03:39:49;;;;;;;1.60;0.77;;;10.00;99.90;10.00;100801.00;;;;4879334;28;117996;-65
2022/11/10 03:42:15;;;;;;;2.73;1.13;;;10.00;99.90;10.10;100800.00;;;;4879985;28;117259;-65
2022/11/10 03:44:41;;;;;;;3.60;1.10;;;10.10;99.90;10.10;100800.00;;;;4879962;28;110422;-65
2022/11/10 03:47:06;;;;;;;1.73;0.67;;;10.10;99.90;10.20;100807.00;;;;4878639;28;109074;-63
2022/11/10 03:49:32;;;;;;;1.33;0.90;;;10.20;99.90;10.30;100797.00;;;;4879530;28;117590;-63
2022/11/10 03:51:58;;;;;;;1.07;0.70;;;10.30;99.90;10.30;100808.00;;;;4882131;28;101876;-64
2022/11/10 03:54:23;;;;;;;0.73;0.60;;;10.30;99.90;10.30;100811.00;;;;4881377;28;91282;-63
2022/11/10 03:56:49;;;;;;;2.43;0.83;;;10.40;99.90;10.40;100814.00;;;;4879963;28;107038;-64
2022/11/10 03:59:15;;;;;;;1.90;1.00;;;10.40;99.90;10.40;100821.00;;;;4881574;28;116741;-64
2022/11/10 04:01:40;;;;;;;0.67;0.60;;;10.50;99.90;10.50;100821.00;;;;4880478;28;116871;-63
2022/11/10 04:08:57;;;;;;;2.40;1.20;;;10.50;99.90;10.50;100818.00;;;;4881336;28;109695;-63
2022/11/10 04:09:38;;;;;;;0.87;0.83;;;10.60;99.90;10.60;100820.00;;;;4879642;28;88057;-64
2022/11/10 04:17:33;;;;;;;1.27;0.83;;;10.70;99.90;10.70;100850.00;;;;4881735;28;87778;-63
2022/11/10 04:19:59;;;;;;;1.60;0.73;;;10.70;99.90;10.80;100844.00;;;;4881993;28;117341;-63
2022/11/10 04:25:08;;;;;;;4.80;1.40;;;10.80;99.90;10.90;100846.00;;;;4877685;28;87977;-63
2022/11/10 04:27:34;;;;;;;1.73;0.73;;;10.90;99.90;10.90;100847.00;;;;4882537;28;109290;-63
2022/11/10 04:30:00;;;;;;;1.13;0.80;;;10.90;99.90;10.90;100861.00;;;;4881124;28;117566;-63
2022/11/10 04:32:25;;;;;;;0.47;0.40;;;11.00;99.90;11.00;100857.00;;;;4883138;28;116795;-63
2022/11/10 04:34:51;;;;;;;1.03;0.70;;;10.90;99.90;11.00;100864.00;;;;4878662;28;111132;-64
2022/11/10 04:37:17;;;;;;;1.37;0.80;;;11.00;99.90;11.00;100871.00;;;;4878792;28;108918;-64
2022/11/10 04:39:43;;;;;;;2.13;0.57;;;11.00;99.90;11.00;100877.00;;;;4880623;28;117782;-63
2022/11/10 04:42:08;;;;;;;2.37;0.97;;;11.00;99.90;11.00;100874.00;;;;4882001;28;90105;-65
2022/11/10 04:44:34;;;;;;;1.47;1.10;;;11.10;99.90;11.00;100873.00;;;;4877412;28;110367;-64
2022/11/10 04:47:00;;;;;;;0.83;0.50;;;11.10;99.90;11.10;100888.00;;;;4876993;28;108037;-64
2022/11/10 04:49:25;;;;;;;1.13;0.83;;;11.10;99.90;11.10;100893.00;;;;4883534;28;117895;-63
2022/11/10 04:51:51;;;;;;;0.63;0.60;;;11.10;99.90;11.10;100882.00;;;;4879008;28;118158;-63
2022/11/10 04:54:17;;;;;;;0.70;0.70;;;11.10;99.90;11.10;100890.00;;;;4879369;28;111018;-63
2022/11/10 04:56:42;;;;;;;0.70;0.60;;;11.10;99.90;11.10;100887.00;;;;4875329;28;108117;-63
2022/11/10 04:59:08;;;;;;;1.60;0.83;;;11.10;99.90;11.10;100895.00;;;;4876734;28;117983;-64
2022/11/10 05:01:34;;;;;;;2.27;0.53;;;11.20;99.90;11.10;100898.00;;;;4875396;28;88603;-64
2022/11/10 05:04:00;;;;;;;1.63;1.10;;;11.20;99.90;11.10;100893.00;;;;4876729;28;109948;-64
2022/11/10 05:06:26;;;;;;;1.87;0.70;;;11.20;99.90;11.20;100896.00;;;;4877911;28;87821;-64
2022/11/10 05:08:52;;;;;;;1.13;0.90;;;11.20;99.90;11.20;100912.00;;;;4875847;28;88164;-64
2022/11/10 05:11:18;;;;;;;1.07;0.60;;;11.20;99.90;11.20;100900.00;;;;4877798;28;98170;-64
2022/11/10 05:13:44;;;;;;;0.50;0.50;;;11.20;99.90;11.20;100907.00;;;;4879117;28;87599;-65
2022/11/10 05:16:11;;;;;;;2.97;1.07;;;11.30;99.90;11.20;100914.00;;;;4878343;28;88831;-64
2022/11/10 05:18:37;;;;;;;1.13;0.93;;;11.20;99.90;11.20;100917.00;;;;4877541;28;89280;-64
2022/11/10 05:21:03;;;;;;;1.73;1.00;;;11.30;99.90;11.20;100925.00;;;;4877171;28;89306;-64
2022/11/10 05:23:38;;;;;;;0.33;0.30;;;11.30;99.90;11.20;100928.00;;;;4882770;28;87702;-64
2022/11/10 05:26:16;;;;;;;1.37;0.67;;;11.30;99.90;11.20;100932.00;;;;4880517;28;87954;-64
2022/11/10 05:28:44;;;;;;;0.57;0.50;;;11.30;99.90;11.30;100943.00;;;;4877060;28;89125;-64
2022/11/10 05:31:11;;;;;;;1.00;0.90;;;11.30;99.90;11.30;100925.00;;;;4881770;28;88270;-64
2022/11/10 05:33:38;;;;;;;1.60;0.50;;;11.30;99.90;11.30;100933.00;;;;4883682;28;96532;-64
2022/11/10 05:36:06;;;;;;;1.03;0.73;;;11.30;99.90;11.20;100925.00;;;;4876139;28;88306;-63
2022/11/10 05:38:31;;;;;;;0.30;0.30;;;11.30;99.90;11.20;100933.00;;;;4875626;28;88487;-64
2022/11/10 05:40:57;;;;;;;2.60;1.20;;;11.20;99.90;11.20;100935.00;;;;4877979;28;88843;-65
2022/11/10 05:43:23;;;;;;;1.17;1.00;;;11.20;99.90;11.20;100941.00;;;;4875742;28;111090;-63
2022/11/10 05:45:49;;;;;;;2.16;0.82;;;11.20;99.90;11.10;100933.00;;;;4008384;28;10001099;-64
2022/11/10 05:48:15;;;;;;;1.60;0.80;;;11.20;99.90;11.10;100946.00;;;;4873957;28;87922;-64
2022/11/10 05:50:42;;;;;;;1.67;0.93;;;11.10;99.90;11.00;100952.00;;;;4879521;28;87956;-63
2022/11/10 05:53:08;;;;;;;7.67;1.23;;;11.10;99.90;11.00;100957.00;;;;4880702;28;88873;-64
2022/11/10 05:55:33;;;;;;;0.70;0.70;;;11.00;99.90;10.90;100970.00;;;;4873848;28;117980;-64
2022/11/10 05:57:59;;;;;;;0.97;0.67;;;11.00;99.90;10.90;100976.00;;;;4876820;28;110386;-63
2022/11/10 06:00:28;;;;;;;2.20;0.90;;;11.00;99.90;10.90;100975.00;;;;4877519;28;96725;-64
2022/11/10 06:02:59;;;;;;;3.87;1.57;;;10.90;99.90;10.90;100983.00;;;;4882813;28;107921;-65
2022/11/10 06:05:25;;;;;;;0.83;0.73;;;10.90;99.90;10.80;100985.00;;;;4880697;28;89014;-65
2022/11/10 06:07:51;;;;;;;1.23;0.73;;;10.90;99.90;10.80;101003.00;;;;4881167;28;87794;-64
2022/11/10 06:10:16;;;;;;;1.40;0.97;;;10.80;99.90;10.80;100996.00;;;;4881453;28;87889;-64
2022/11/10 06:12:42;;;;;;;1.07;0.57;;;10.80;99.90;10.70;100999.00;;;;4883986;28;111074;-63
2022/11/10 06:15:10;;;;;;;0.87;0.70;;;10.80;99.90;10.60;101005.00;;;;4881338;28;88547;-63
2022/11/10 06:17:39;;;;;;;3.90;1.07;;;10.70;99.90;10.50;101014.00;;;;4879381;28;87815;-63
2022/11/10 06:20:05;;;;;;;0.67;0.63;;;10.60;99.90;10.50;101030.00;;;;4876797;28;92244;-63
2022/11/10 06:22:31;;;;;;;0.43;0.43;;;10.50;99.90;10.40;101034.00;;;;4876468;28;111252;-63
2022/11/10 06:24:56;;;;;;;0.83;0.83;;;10.50;99.90;10.30;101038.00;;;;4875081;28;116613;-64
2022/11/10 06:27:22;;;;;;;1.60;0.73;;;10.40;99.90;10.30;101054.00;;;;4877843;28;109250;-64
2022/11/10 06:29:47;;;;;;;1.60;0.90;;;10.40;99.90;10.30;101051.00;;;;4877159;28;108949;-63
2022/11/10 06:32:13;;;;;;;0.77;0.77;;;10.40;99.90;10.30;101058.00;;;;4875242;28;118444;-63
2022/11/10 06:34:39;;;;;;;1.33;0.97;;;10.40;99.90;10.30;101064.00;;;;4878663;28;117515;-63
2022/11/10 06:37:04;;;;;;;1.00;0.90;;;10.40;99.90;10.30;101067.00;;;;4875131;28;87694;-63
2022/11/10 06:39:30;;;;;;;1.43;1.17;;;10.40;99.90;10.30;101069.00;;;;4878866;28;108184;-63
2022/11/10 06:41:56;;;;;;;3.00;1.33;;;10.40;99.90;10.30;101087.00;;;;4876797;28;117696;-65
2022/11/10 06:44:21;;;;;;;1.30;1.10;;;10.40;99.90;10.30;101081.00;;;;4879245;28;116387;-63
2022/11/10 06:46:47;;;;;;;4.10;1.10;;;10.40;99.90;10.30;101091.00;;;;4876606;28;110204;-64
2022/11/10 06:49:13;;;;;;;1.80;0.80;;;10.40;99.90;10.30;101087.00;;;;4881251;28;108973;-64
2022/11/10 06:51:39;;;;;;;1.37;0.83;;;10.40;99.90;10.30;101092.00;;;;4874468;28;117075;-63
2022/11/10 06:54:04;;;;;;;1.67;1.07;;;10.40;99.90;10.30;101099.00;;;;4879811;28;89156;-64
2022/11/10 06:56:30;;;;;;;0.53;0.53;;;10.40;99.90;10.30;101089.00;;;;4880881;28;88145;-63
2022/11/10 06:58:56;;;;;;;0.80;0.50;;;10.40;99.90;10.30;101094.00;;;;4879898;28;94819;-63
2022/11/10 07:01:25;;;;;;;1.73;0.80;;;10.40;99.90;10.30;101109.00;;;;4875306;28;117964;-63
2022/11/10 07:03:52;;;;;;;0.60;0.60;;;10.30;99.90;10.20;101120.00;;;;4879444;28;88877;-63
2022/11/10 07:06:18;;;;;;;5.70;0.90;;;10.30;99.90;10.20;101119.00;;;;4879666;28;87858;-64
2022/11/10 07:08:44;;;;;;;3.23;0.93;;;10.30;99.90;10.20;101120.00;;;;4880946;28;87680;-63
2022/11/10 07:11:10;;;;;;;1.87;1.10;;;10.30;99.90;10.10;101127.00;;;;4876461;28;117477;-64
2022/11/10 07:13:36;;;;;;;1.30;1.20;;;10.20;99.90;10.10;101133.00;;;;4876198;28;107532;-63
2022/11/10 07:16:08;;;;;;;1.53;1.10;;;10.20;99.90;10.10;101129.00;;;;4876055;28;111029;-63
2022/11/10 07:18:35;;;;;;;2.27;1.40;;;10.20;99.90;10.20;101149.00;;;;4872584;28;88923;-64
2022/11/10 07:21:04;;;;;;;4.07;2.10;;;10.20;99.90;10.20;101157.00;;;;4876580;28;88950;-63
2022/11/10 07:23:32;;;;;;;3.50;1.63;;;10.20;99.90;10.20;101165.00;;;;4876812;28;88440;-63
2022/11/10 07:25:59;;;;;;;5.40;2.67;;;10.20;99.90;10.20;101177.00;;;;4876462;28;87744;-64
2022/11/10 07:28:24;;;;;;;3.60;1.63;;;10.30;99.90;10.30;101172.00;;;;4879813;28;87997;-64
2022/11/10 07:30:50;;;;;;;5.70;1.93;;;10.30;99.90;10.30;101180.00;;;;4873126;28;118631;-63
2022/11/10 07:33:16;;;;;;;3.20;1.33;;;10.30;99.90;10.30;101178.00;;;;4876950;28;117272;-64
2022/11/10 07:35:41;;;;;;;9.33;0.90;;;10.40;99.90;10.30;101185.00;;;;4879244;28;106433;-64
2022/11/10 07:38:11;;;;;;;3.17;0.70;;;10.40;99.90;10.40;101196.00;;;;4880149;28;95224;-63
2022/11/10 07:40:37;;;;;;;5.10;0.90;;;10.40;99.90;10.50;101197.00;;;;4874581;28;105918;-63
2022/11/10 07:43:03;;;;;;;0.67;0.60;;;10.40;99.90;10.60;101201.00;;;;4874301;28;117628;-63
2022/11/10 07:45:31;;;;;;;0.93;0.77;;;10.60;99.90;10.70;101204.00;;;;4879042;28;94538;-63
2022/11/10 07:48:05;;;;;;;1.17;0.97;;;10.60;99.90;10.70;101208.00;;;;4878007;28;96652;-63
2022/11/10 07:50:32;;;;;;;0.97;0.50;;;10.70;99.90;10.80;101204.00;;;;4876844;28;88093;-64
2022/11/10 07:53:16;;;;;;;5.00;1.13;;;10.80;99.90;10.90;101221.00;;;;4877908;28;87627;-63
2022/11/10 07:55:44;;;;;;;3.70;1.40;;;10.90;99.90;11.00;101214.00;;;;4879931;28;102257;-63
2022/11/10 07:58:12;;;;;;;2.20;0.83;;;10.90;99.90;11.10;101235.00;;;;4880304;28;87971;-64
2022/11/10 08:00:38;;;;;;;1.00;0.87;;;11.00;99.90;11.10;101230.00;;;;4881384;28;87179;-64
2022/11/10 08:03:25;;;;;;;0.60;0.60;;;11.10;99.90;11.20;101235.00;;;;4882611;28;87740;-64
2022/11/10 08:05:51;;;;;;;2.60;1.00;;;11.20;99.90;11.20;101235.00;;;;4878952;28;109414;-63
2022/11/10 08:08:17;;;;;;;3.43;1.17;;;11.20;99.90;11.20;101244.00;;;;4878281;28;109166;-64
2022/11/10 08:10:43;;;;;;;2.30;1.10;;;11.20;99.90;11.30;101250.00;;;;4882134;28;103906;-64
2022/11/10 08:13:12;;;;;;;1.50;0.97;;;11.30;99.90;11.30;101237.00;;;;4881187;28;89046;-64
2022/11/10 08:15:39;;;;;;;1.80;0.93;;;11.30;99.90;11.30;101248.00;;;;4880589;28;88102;-64
2022/11/10 08:18:14;;;;;;;0.80;0.80;;;11.30;99.90;11.30;101249.00;;;;4882172;28;87989;-65
2022/11/10 08:20:41;;;;;;;0.87;0.87;;;11.30;99.90;11.30;101258.00;;;;4884265;28;99952;-64
2022/11/10 08:23:07;;;;;;;2.00;0.97;;;11.30;99.90;11.30;101249.00;;;;4882272;28;88561;-64
2022/11/10 08:25:35;;;;;;;2.30;1.30;;;11.30;99.90;11.40;101257.00;;;;4881189;28;87101;-64
2022/11/10 08:28:08;;;;;;;4.00;0.57;;;11.40;99.90;11.40;101258.00;;;;4883593;28;87629;-64
2022/11/10 08:30:37;;;;;;;2.30;1.07;;;11.40;99.90;11.50;101260.00;;;;4882069;28;100704;-65
2022/11/10 08:33:05;;;;;;;0.80;0.70;;;11.50;99.90;11.50;101265.00;;;;4880012;28;88785;-65
2022/11/10 08:35:36;;;;;;;0.73;0.73;;;11.50;99.90;11.60;101271.00;;;;4877704;28;104606;-64
2022/11/10 08:38:11;;;;;;;0.70;0.57;;;11.60;99.90;11.60;101278.00;;;;4879512;28;88279;-64
2022/11/10 08:40:38;;;;;;;3.10;0.97;;;11.60;99.90;11.60;101284.00;;;;4880961;28;88564;-65
2022/11/10 08:43:06;;;;;;;2.20;0.97;;;11.60;99.90;11.70;101270.00;;;;4880688;28;87973;-64
2022/11/10 08:45:33;;;;;;;1.87;0.77;;;11.70;99.90;11.70;101293.00;;;;4878105;28;87843;-64
2022/11/10 08:48:06;;;;;;;3.03;0.70;;;11.70;99.90;11.70;101292.00;;;;4888861;28;87675;-64
2022/11/10 08:50:31;;;;;;;3.93;0.93;;;11.70;99.90;11.90;101301.00;;;;4880330;28;94785;-63
2022/11/10 08:53:04;;;;;;;1.70;0.87;;;11.80;99.90;12.30;101305.00;;;;4875242;28;87973;-64
2022/11/10 08:55:30;;;;;;;0.60;0.60;;;12.10;99.90;12.80;101308.00;;;;4878702;28;88034;-63
2022/11/10 08:58:02;;;;;;;0.30;0.30;;;12.60;99.90;13.20;101310.00;;;;4877606;28;108615;-63
2022/11/10 09:00:30;;;;;;;1.37;0.73;;;12.90;99.90;13.50;101320.00;;;;4882794;28;88311;-63
2022/11/10 09:03:02;;;;;;;2.23;0.70;;;13.30;99.90;13.60;101316.00;;;;4881029;28;98141;-64
2022/11/10 09:05:28;;;;;;;0.47;0.47;;;13.50;99.90;13.70;101325.00;;;;4879235;28;87832;-63
2022/11/10 09:07:53;;;;;;;2.53;0.70;;;13.60;99.90;13.70;101327.00;;;;4872331;28;108907;-64
2022/11/10 09:10:19;;;;;;;1.73;1.00;;;13.70;99.90;13.70;101327.00;;;;4876422;28;116813;-64
2022/11/10 09:12:45;;;;;;;0.80;0.80;;;14.00;99.90;13.70;101331.00;;;;4876766;28;116617;-64
2022/11/10 09:15:11;;;;;;;2.10;1.03;;;13.70;99.90;13.60;101334.00;;;;4877887;28;86919;-64
2022/11/10 09:17:39;;;;;;;1.17;0.60;;;13.60;99.90;13.60;101332.00;;;;4877074;28;87586;-64
2022/11/10 09:20:06;;;;;;;0.80;0.70;;;13.60;99.90;13.50;101340.00;;;;4878859;28;88282;-64
2022/11/10 09:22:37;;;;;;;0.80;0.53;;;13.60;99.90;13.40;101345.00;;;;4877022;28;108774;-64
2022/11/10 09:25:03;;;;;;;0.47;0.47;;;13.50;99.90;13.40;101355.00;;;;4878715;28;94736;-63
2022/11/10 09:27:29;;;;;;;2.47;0.70;;;13.40;99.90;13.40;101355.00;;;;4876239;28;100648;-63
2022/11/10 09:29:55;;;;;;;0.50;0.50;;;13.40;99.90;13.50;101362.00;;;;4879065;28;107931;-63
2022/11/10 09:32:21;;;;;;;0.67;0.50;;;13.40;99.90;13.60;101352.00;;;;4881778;28;118120;-64
2022/11/10 09:34:46;;;;;;;1.00;0.50;;;13.50;99.90;13.80;101362.00;;;;4879082;28;110190;-64
2022/11/10 09:37:12;;;;;;;2.40;0.57;;;13.70;99.90;13.90;101372.00;;;;4878369;28;100617;-64
2022/11/10 09:39:38;;;;;;;6.80;1.27;;;13.80;99.90;14.20;101367.00;;;;4880306;28;86909;-64
2022/11/10 09:42:05;;;;;;;0.40;0.40;;;14.10;99.90;14.50;101371.00;;;;4882069;28;89185;-64
2022/11/10 09:44:40;;;;;;;1.43;0.83;;;14.40;99.90;14.90;101386.00;;;;4880297;28;87965;-65
2022/11/10 09:47:13;;;;;;;1.20;1.00;;;14.70;99.90;15.20;101381.00;;;;4877438;28;100447;-64
2022/11/10 09:49:45;;;;;;;0.85;0.73;;;15.00;99.90;15.50;101377.00;;;;4879818;28;103899;-64
2022/11/10 09:52:12;;;;;;;1.35;0.70;;;15.30;99.90;15.70;101389.00;;;;4894677;28;109557;-65
2022/11/10 09:54:44;;;;;;;1.38;0.60;;;15.50;99.90;15.90;101402.00;;;;4879865;28;110020;-64
2022/11/10 09:57:17;;;;;;;1.33;0.90;;;15.70;99.90;16.10;101396.00;;;;4879769;28;92744;-65
2022/11/10 09:59:43;;;;;;;1.23;0.47;;;16.00;99.90;16.30;101391.00;;;;4878133;28;110514;-64
2022/11/10 10:02:19;;;;;;;23.63;2.05;;;16.10;99.90;16.40;101389.00;;;;4884202;28;117131;-65
2022/11/10 10:05:13;;;;;;;1.17;0.75;;;16.30;99.70;16.30;101405.00;;;;4879014;28;87102;-64
2022/11/10 10:08:05;;;;;;;5.03;1.45;;;16.30;98.30;16.20;101402.00;;;;4878733;28;87862;-63
2022/11/10 10:10:43;;;;;;;2.45;0.80;;;16.20;98.80;16.00;101401.00;;;;4892158;28;87796;-65
2022/11/10 10:13:52;;;;;;;9.05;1.20;;;16.10;99.10;16.00;101395.00;;;;4893761;28;109265;-64
2022/11/10 10:16:48;;;;;;;0.70;0.70;;;16.00;99.20;16.10;101401.00;;;;4891115;28;105058;-64
2022/11/10 10:19:49;;;;;;;2.25;0.60;;;16.00;98.70;16.10;101404.00;;;;4874313;28;104146;-64
2022/11/10 10:22:52;;;;;;;1.38;0.50;;;16.00;98.30;16.10;101394.00;;;;4875186;28;87852;-64
2022/11/10 10:25:26;;;;;;;0.82;0.77;;;16.00;98.20;16.30;101410.00;;;;4879759;28;87837;-64
2022/11/10 10:28:19;;;;;;;0.90;0.70;;;16.20;98.30;16.60;101398.00;;;;4875109;28;89559;-64
2022/11/10 10:30:44;;;;;;;0.63;0.32;;;16.40;97.30;16.80;101393.00;;;;4890506;28;88012;-63
2022/11/10 10:33:17;;;;;;;1.65;0.98;;;16.60;97.00;16.90;101400.00;;;;4875304;28;116039;-63
2022/11/10 10:35:46;;;;;;;0.70;0.50;;;16.80;96.60;17.10;101391.00;;;;4875788;28;109907;-63
2022/11/10 10:38:21;;;;;;;0.63;0.60;;;16.90;95.60;17.30;101397.00;;;;4876808;28;90199;-63
2022/11/10 10:40:50;;;;;;;3.08;1.23;;;17.10;95.90;17.50;101399.00;;;;4873645;28;88812;-63
2022/11/10 10:43:16;;;;;;;8.18;1.20;;;17.30;93.60;17.50;101407.00;;;;4877995;28;88659;-63
2022/11/10 10:45:41;;;;;;;1.77;0.68;;;17.40;93.90;17.60;101400.00;;;;4876648;28;117343;-63
2022/11/10 10:48:27;;;;;;;1.02;0.80;;;17.40;92.70;17.60;101402.00;;;;4879262;28;110088;-62
2022/11/10 10:50:53;;;;;;;0.88;0.77;;;17.50;92.50;17.60;101401.00;;;;4877542;28;87764;-64
2022/11/10 10:53:23;;;;;;;1.52;0.63;;;17.50;92.30;17.70;101396.00;;;;4878867;28;88160;-64
2022/11/10 10:55:58;;;;;;;0.47;0.43;;;17.50;91.80;17.80;101397.00;;;;4877761;28;88283;-63
2022/11/10 10:58:36;;;;;;;3.35;0.70;;;17.60;92.10;18.00;101388.00;;;;4879416;28;87000;-64
2022/11/10 11:01:30;;;;;;;2.63;1.00;;;17.80;92.70;18.10;101406.00;;;;4877267;28;102091;-63